createdAt,value
2019-01-24T00:03:10.057Z,12.70
2019-01-24T00:05:58.966Z,13.70
2019-01-24T00:08:41.295Z,14.13
2019-01-24T00:11:30.216Z,12.20
2019-01-24T00:14:19.234Z,10.97
2019-01-24T00:17:09.860Z,12.10
2019-01-24T00:19:58.886Z,13.47
2019-01-24T00:22:47.871Z,10.47
2019-01-24T00:25:37.041Z,10.03
2019-01-24T00:28:26.110Z,9.13
2019-01-24T00:31:15.029Z,12.80
2019-01-24T00:34:03.968Z,11.90
2019-01-24T00:36:52.811Z,10.20
2019-01-24T00:40:01.115Z,10.87
2019-01-24T00:43:09.395Z,10.40
2019-01-24T00:45:58.251Z,11.00
2019-01-24T00:48:47.261Z,11.10
2019-01-24T00:51:55.617Z,10.07
2019-01-24T00:55:24.633Z,9.77
2019-01-24T00:58:13.602Z,9.87
2019-01-24T01:01:02.675Z,11.33
2019-01-24T01:04:10.946Z,9.90
2019-01-24T01:07:10.866Z,12.47
2019-01-24T01:09:59.792Z,10.60
2019-01-24T01:12:48.861Z,13.37
2019-01-24T01:15:57.162Z,12.80
2019-01-24T01:18:46.148Z,9.60
2019-01-24T01:21:35.159Z,10.17
2019-01-24T01:24:43.439Z,9.57
2019-01-24T01:27:32.519Z,9.53
2019-01-24T01:30:42.094Z,11.77
2019-01-24T01:33:31.091Z,12.60
2019-01-24T06:44:17.782Z,13.80
2019-01-24T06:46:47.357Z,13.10
2019-01-24T06:49:36.312Z,15.67
2019-01-24T06:52:25.307Z,13.90
2019-01-24T06:55:34.970Z,15.63
2019-01-24T06:58:23.978Z,13.10
2019-01-24T07:01:12.975Z,14.37
2019-01-24T07:04:01.849Z,17.20
2019-01-24T07:06:52.386Z,13.17
2019-01-24T07:09:34.867Z,16.87
2019-01-24T07:12:23.719Z,15.40
2019-01-24T07:15:33.322Z,14.93
2019-01-24T07:18:22.179Z,14.20
2019-01-24T07:21:11.283Z,14.03
2019-01-24T07:24:00.230Z,15.00
2019-01-24T07:26:49.120Z,16.17
2019-01-24T07:29:38.061Z,16.27
2019-01-24T07:32:26.982Z,15.40
2019-01-24T07:35:35.326Z,15.73
2019-01-24T07:38:24.259Z,14.03
2019-01-24T07:41:32.622Z,16.23
2019-01-24T07:44:21.536Z,15.97
2019-01-24T07:47:12.030Z,17.23
2019-01-24T07:50:02.527Z,16.70
2019-01-24T07:52:51.634Z,17.57
2019-01-24T07:55:42.136Z,17.00
2019-01-24T07:58:50.467Z,16.97
2019-01-24T08:01:39.411Z,19.97
2019-01-24T08:04:28.323Z,15.07
2019-01-24T08:07:18.888Z,17.57
2019-01-24T08:10:27.162Z,17.50
2019-01-24T08:13:16.192Z,16.50
2019-01-24T08:16:05.194Z,17.00
2019-01-24T08:18:54.072Z,15.80
2019-01-24T08:21:42.951Z,16.77
2019-01-24T08:24:51.402Z,14.60
2019-01-24T08:27:40.378Z,17.13
2019-01-24T08:31:01.964Z,17.10
2019-01-24T08:34:00.060Z,17.77
2019-01-24T08:36:50.605Z,14.30
2019-01-24T08:39:39.640Z,17.47
2019-01-24T08:42:28.608Z,16.40
2019-01-24T08:45:17.680Z,16.40
2019-01-24T08:48:26.039Z,17.67
2019-01-24T08:51:14.954Z,16.57
2019-01-24T08:54:03.861Z,16.37
2019-01-24T08:57:12.171Z,14.50
2019-01-24T09:00:01.056Z,16.07
2019-01-24T09:02:50.469Z,16.43
2019-01-24T09:05:39.478Z,15.83
2019-01-24T09:08:22.202Z,17.27
2019-01-24T09:11:11.067Z,16.53
2019-01-24T09:13:59.966Z,17.53
2019-01-24T09:16:48.924Z,15.17
2019-01-24T09:19:37.962Z,17.93
2019-01-24T09:22:26.807Z,15.77
2019-01-24T09:25:16.063Z,16.30
2019-01-24T09:28:05.059Z,17.70
2019-01-24T09:31:13.341Z,16.80
2019-01-24T09:34:03.979Z,18.20
2019-01-24T09:36:52.838Z,15.60
2019-01-24T09:39:41.807Z,16.43
2019-01-24T09:42:30.718Z,17.53
2019-01-24T09:45:40.378Z,20.20
2019-01-24T09:48:29.250Z,18.90
2019-01-24T09:51:18.204Z,18.83
2019-01-24T09:54:07.115Z,17.03
2019-01-24T09:56:55.971Z,18.03
2019-01-24T09:59:44.888Z,16.33
2019-01-24T10:02:33.947Z,18.63
2019-01-24T10:05:22.943Z,18.67
2019-01-24T10:08:11.917Z,18.70
2019-01-24T10:11:00.887Z,16.03
2019-01-24T10:13:49.805Z,17.90
2019-01-24T10:16:38.682Z,18.83
2019-01-24T10:19:46.943Z,16.73
2019-01-24T10:22:35.879Z,17.20
2019-01-24T10:25:44.073Z,17.17
2019-01-24T10:28:46.330Z,18.27
2019-01-24T10:31:35.199Z,17.87
2019-01-24T10:34:43.566Z,19.00
2019-01-24T10:37:51.927Z,17.70
2019-01-24T10:41:00.187Z,18.40
2019-01-24T10:43:49.195Z,18.83
2019-01-24T10:46:38.055Z,17.07
2019-01-24T10:49:27.025Z,18.60
2019-01-24T10:52:15.947Z,16.90
2019-01-24T10:55:25.561Z,18.43
2019-01-24T10:58:14.495Z,19.00
2019-01-24T11:01:03.531Z,18.77
2019-01-24T11:03:54.219Z,16.53
2019-01-24T11:06:49.860Z,18.67
2019-01-24T11:09:46.515Z,17.10
2019-01-24T11:12:35.363Z,18.30
2019-01-24T11:15:24.826Z,17.90
2019-01-24T11:18:13.831Z,18.80
2019-01-24T11:21:22.200Z,16.93
2019-01-24T11:24:11.210Z,17.73
2019-01-24T11:27:00.387Z,17.50
2019-01-24T11:29:49.315Z,16.10
2019-01-24T11:32:39.839Z,16.03
2019-01-24T11:35:49.577Z,17.50
2019-01-24T11:38:38.600Z,18.57
2019-01-24T11:41:27.667Z,18.57
2019-01-24T11:44:36.161Z,16.57
2019-01-24T11:47:46.120Z,15.73
2019-01-24T11:50:54.410Z,17.07
2019-01-24T11:53:44.896Z,16.20
2019-01-24T11:56:33.858Z,17.27
2019-01-24T11:59:22.778Z,17.27
2019-01-24T12:02:31.076Z,15.60
2019-01-24T12:05:39.686Z,15.73
2019-01-24T12:08:22.600Z,18.00
2019-01-24T12:11:11.683Z,19.37
2019-01-24T12:14:02.196Z,15.37
2019-01-24T12:16:51.112Z,16.20
2019-01-24T12:19:40.922Z,17.43
2019-01-24T12:22:29.838Z,18.67
2019-01-24T12:28:46.161Z,19.57
2019-01-24T12:31:35.041Z,16.87
2019-01-24T12:38:28.559Z,16.33
2019-01-24T12:41:19.089Z,18.47
2019-01-24T12:44:27.420Z,16.17
2019-01-24T12:47:16.350Z,15.90
2019-01-24T12:50:25.940Z,14.07
2019-01-24T12:53:14.951Z,17.07
2019-01-24T12:56:03.937Z,17.47
2019-01-24T12:59:12.307Z,19.63
2019-01-24T13:02:01.251Z,15.87
2019-01-24T13:04:50.199Z,17.10
2019-01-24T13:07:33.006Z,17.60
2019-01-24T13:10:22.896Z,17.10
2019-01-24T13:13:11.773Z,16.73
2019-01-24T13:16:00.773Z,19.37
2019-01-24T13:19:09.142Z,20.77
2019-01-24T13:21:58.081Z,20.10
2019-01-24T13:24:47.148Z,20.80
2019-01-24T13:27:36.094Z,14.90
2019-01-24T13:30:45.715Z,19.40
2019-01-24T13:33:34.606Z,17.87
2019-01-24T13:36:42.971Z,18.17
2019-01-24T13:39:31.842Z,17.97
2019-01-24T13:42:20.767Z,17.13
2019-01-24T13:45:30.392Z,17.67
2019-01-24T13:48:19.385Z,18.40
2019-01-24T13:51:08.401Z,18.70
2019-01-24T13:53:57.316Z,17.07
2019-01-24T13:56:46.269Z,19.13
2019-01-24T13:59:35.163Z,19.67
2019-01-24T14:02:24.137Z,17.43
2019-01-24T14:05:33.747Z,19.70
2019-01-24T14:08:24.301Z,19.27
2019-01-24T14:11:18.269Z,17.83
2019-01-24T14:14:24.900Z,27.55
2019-01-24T14:17:15.551Z,25.33
2019-01-24T14:20:25.146Z,25.20
2019-01-24T14:23:14.243Z,19.97
2019-01-24T14:26:03.284Z,17.90
2019-01-24T14:28:54.231Z,19.17
2019-01-24T14:31:43.199Z,20.40
2019-01-24T14:34:33.783Z,20.10
2019-01-24T14:37:24.418Z,18.37
2019-01-24T14:40:32.688Z,17.00
2019-01-24T14:43:21.735Z,19.60
2019-01-24T14:46:10.727Z,18.87
2019-01-24T14:48:59.843Z,22.10
2019-01-24T14:51:50.886Z,21.40
2019-01-24T14:55:12.942Z,19.60
2019-01-24T14:58:09.300Z,22.13
2019-01-24T15:01:19.128Z,19.47
2019-01-24T15:04:08.278Z,20.73
2019-01-24T15:06:57.267Z,17.87
2019-01-24T15:09:39.759Z,17.47
2019-01-24T15:12:28.643Z,19.37
2019-01-24T15:15:39.851Z,19.67
2019-01-24T15:18:48.328Z,28.47
2019-01-24T15:25:25.318Z,22.60
2019-01-24T15:28:33.708Z,19.90
2019-01-24T15:31:22.692Z,21.57
2019-01-24T15:34:13.202Z,18.80
2019-01-24T15:36:42.856Z,21.03
2019-01-24T15:39:33.377Z,21.47
2019-01-24T15:42:22.411Z,23.10
2019-01-24T15:45:32.140Z,18.90
2019-01-24T15:48:22.667Z,19.40
2019-01-24T15:51:11.594Z,19.93
2019-01-24T15:54:02.174Z,17.80
2019-01-24T15:56:52.728Z,19.13
2019-01-24T15:59:43.396Z,17.40
2019-01-24T16:02:51.739Z,19.90
2019-01-24T16:05:40.835Z,17.07
2019-01-24T16:08:24.575Z,18.57
2019-01-24T16:11:13.643Z,17.50
2019-01-24T16:14:04.411Z,17.57
2019-01-24T16:16:56.392Z,20.10
2019-01-24T16:19:45.413Z,18.80
2019-01-24T16:22:34.378Z,19.40
2019-01-24T16:25:43.999Z,19.47
2019-01-24T16:28:34.560Z,19.27
2019-01-24T16:31:25.151Z,18.17
2019-01-24T16:34:15.649Z,17.80
2019-01-24T16:37:04.659Z,18.23
2019-01-24T16:40:33.707Z,17.97
2019-01-24T16:43:22.647Z,17.20
2019-01-24T16:46:29.360Z,20.53
2019-01-24T16:49:18.403Z,18.37
2019-01-24T16:52:26.700Z,22.07
2019-01-24T16:55:16.491Z,22.37
2019-01-24T16:58:05.942Z,19.50
2019-01-24T17:01:14.321Z,19.37
2019-01-24T17:04:03.240Z,17.50
2019-01-24T17:06:53.738Z,18.20
2019-01-24T17:09:36.123Z,18.30
2019-01-24T17:12:25.180Z,18.07
2019-01-24T17:15:34.797Z,18.00
2019-01-24T17:18:23.755Z,19.23
2019-01-24T17:21:12.747Z,20.83
2019-01-24T17:24:01.743Z,18.90
2019-01-24T17:26:50.729Z,16.87
2019-01-24T17:29:59.126Z,17.03
2019-01-24T17:32:49.860Z,20.30
2019-01-24T17:35:58.141Z,19.47
2019-01-24T17:38:47.066Z,16.83
2019-01-24T17:41:36.055Z,16.50
2019-01-24T17:44:25.018Z,19.77
2019-01-24T17:47:13.880Z,19.17
2019-01-24T17:50:02.860Z,18.13
2019-01-24T17:52:51.942Z,20.90
2019-01-24T17:56:00.348Z,20.07
2019-01-24T17:58:50.932Z,21.03
2019-01-24T18:08:08.447Z,16.43
2019-01-24T18:10:52.617Z,15.30
2019-01-24T18:13:41.619Z,16.37
2019-01-24T18:16:30.596Z,21.37
2019-01-24T18:19:38.963Z,18.00
2019-01-24T18:22:27.829Z,16.77
2019-01-24T18:28:17.920Z,17.37
2019-01-24T18:37:31.169Z,17.60
2019-01-24T18:40:40.791Z,14.73
2019-01-24T18:46:39.459Z,16.07
2019-01-24T18:49:30.087Z,16.00
2019-01-24T18:52:19.103Z,14.03
2019-01-24T18:55:08.479Z,15.37
2019-01-24T18:57:57.622Z,16.30
2019-01-24T19:00:46.727Z,15.47
2019-01-24T19:03:35.785Z,16.80
2019-01-24T19:06:44.183Z,19.50
2019-01-24T19:09:26.596Z,17.13
2019-01-24T19:12:15.573Z,19.53
2019-01-24T19:15:25.225Z,16.57
2019-01-24T19:21:14.771Z,17.80
2019-01-24T19:24:03.719Z,18.90
2019-01-24T19:26:52.666Z,19.20
2019-01-24T19:29:41.753Z,18.53
2019-01-24T19:32:50.115Z,19.17
2019-01-24T19:35:40.669Z,18.90
2019-01-24T19:38:29.595Z,16.70
2019-01-24T19:41:20.159Z,17.07
2019-01-24T19:44:15.646Z,17.67
2019-01-24T19:47:20.912Z,17.43
2019-01-24T19:50:30.631Z,18.17
2019-01-24T19:53:19.664Z,22.00
2019-01-24T19:56:08.657Z,18.90
2019-01-24T19:58:57.790Z,20.27
2019-01-24T20:01:46.731Z,20.40
2019-01-24T20:04:37.406Z,19.93
2019-01-24T20:07:26.367Z,19.33
2019-01-24T20:10:28.882Z,19.73
2019-01-24T20:13:18.006Z,18.67
2019-01-24T20:16:07.003Z,17.53
2019-01-24T20:18:56.011Z,19.57
2019-01-24T20:21:44.901Z,16.90
2019-01-24T20:24:33.923Z,20.90
2019-01-24T20:27:22.937Z,16.10
2019-01-24T20:30:34.261Z,14.60
2019-01-24T20:33:42.559Z,15.97
2019-01-24T20:36:31.563Z,16.17
2019-01-24T20:39:20.729Z,14.67
2019-01-24T20:45:30.958Z,16.73
2019-01-24T20:48:21.442Z,15.40
2019-01-24T20:54:32.303Z,21.00
2019-01-24T20:57:21.317Z,16.73
2019-01-24T21:00:30.999Z,15.47
2019-01-24T21:03:20.306Z,14.13
2019-01-24T21:06:10.872Z,15.40
2019-01-24T21:08:53.581Z,17.27
2019-01-24T21:14:45.198Z,16.60
2019-01-24T21:17:34.234Z,16.90
2019-01-24T21:20:42.699Z,16.00
2019-01-24T21:23:31.922Z,15.17
2019-01-24T21:29:58.962Z,14.77
2019-01-24T21:32:48.096Z,17.97
2019-01-24T21:35:56.585Z,17.10
2019-01-24T21:38:45.848Z,16.40
2019-01-24T21:41:34.988Z,14.93
2019-01-24T21:47:24.911Z,17.03
2019-01-24T21:49:54.750Z,17.07
2019-01-24T21:52:45.399Z,18.40
2019-01-24T21:55:34.398Z,16.07
2019-01-24T21:58:23.615Z,18.83
2019-01-24T22:01:12.620Z,17.53
2019-01-24T22:04:01.591Z,15.00
2019-01-24T22:06:52.112Z,14.57
2019-01-24T22:09:34.639Z,15.83
2019-01-24T22:12:23.634Z,14.83
2019-01-24T22:15:33.303Z,16.87
2019-01-24T22:18:22.292Z,15.60
2019-01-24T22:21:11.436Z,14.50
2019-01-24T22:24:00.699Z,13.60
2019-01-24T22:26:49.571Z,12.50
2019-01-24T22:29:38.527Z,16.63
2019-01-24T22:35:56.426Z,16.53
2019-01-24T22:38:45.363Z,16.70
2019-01-24T22:41:34.426Z,13.83
2019-01-24T22:44:24.982Z,17.57
2019-01-24T22:47:13.879Z,12.57
2019-01-24T22:50:02.770Z,14.47
2019-01-24T22:52:51.698Z,13.10
2019-01-24T22:55:40.570Z,12.13
2019-01-24T22:58:48.835Z,12.33
2019-01-24T23:01:58.441Z,13.80
2019-01-24T23:04:47.299Z,12.43
2019-01-24T23:07:36.254Z,13.53
2019-01-24T23:10:19.133Z,12.77
2019-01-24T23:13:08.106Z,13.20
2019-01-24T23:15:57.052Z,13.33
2019-01-24T23:18:45.935Z,14.00
2019-01-24T23:21:34.861Z,12.17
2019-01-24T23:24:23.795Z,12.73
2019-01-24T23:27:14.327Z,13.47
2019-01-24T23:30:23.903Z,12.60
2019-01-24T23:33:32.193Z,13.90
2019-01-24T23:36:21.083Z,13.43
2019-01-24T23:39:10.225Z,12.50
2019-01-24T23:41:59.149Z,14.30
2019-01-24T23:44:48.081Z,13.97
2019-01-24T23:47:36.943Z,12.93
2019-01-24T23:50:25.785Z,12.30
2019-01-24T23:53:14.657Z,12.60
2019-01-24T23:56:03.755Z,12.27
2019-01-24T23:58:52.614Z,11.93
